Time;durP1;ratioP1;P1;durP2;ratioP2;P2;SDS_P1;SDS_P2;PMS_P1;PMS_P2;Temp;Humidity;BMP_temperature;BMP_pressure;BME280_temperature;BME280_humidity;BME280_pressure;Samples;Min_cycle;Max_cycle;Signal;HPM_P1;HPM_P2
2023/05/30 00:00:25;;;;;;;4.40;1.15;;;16.20;64.00;;;;;;5025222;28;20190;-65
2023/05/30 00:02:51;;;;;;;4.07;1.30;;;16.20;64.00;;;;;;5028958;28;20225;-67
2023/05/30 00:05:17;;;;;;;2.97;1.27;;;16.20;64.10;;;;;;5034035;28;20215;-66
2023/05/30 00:07:43;;;;;;;4.40;1.45;;;16.10;63.90;;;;;;5028612;28;20178;-67
2023/05/30 00:10:09;;;;;;;2.55;1.17;;;16.10;63.90;;;;;;5030828;28;20194;-67
2023/05/30 00:12:36;;;;;;;3.22;1.42;;;16.00;63.80;;;;;;5033437;28;20229;-67
2023/05/30 00:15:06;;;;;;;3.05;1.20;;;16.00;63.90;;;;;;5038583;28;20178;-66
2023/05/30 00:17:32;;;;;;;2.90;1.33;;;15.90;63.90;;;;;;5024224;28;20175;-68
2023/05/30 00:20:00;;;;;;;2.03;1.20;;;15.90;63.90;;;;;;5025929;28;20198;-68
2023/05/30 00:22:26;;;;;;;3.30;1.13;;;15.80;63.90;;;;;;5034446;28;20189;-68
2023/05/30 00:24:52;;;;;;;2.67;1.20;;;15.80;64.00;;;;;;5034058;28;20189;-68
2023/05/30 00:27:25;;;;;;;2.58;1.23;;;15.80;64.70;;;;;;5032352;28;20209;-68
2023/05/30 00:29:50;;;;;;;5.38;1.50;;;15.80;64.20;;;;;;5017899;28;20179;-67
2023/05/30 00:32:16;;;;;;;4.68;1.52;;;15.70;64.10;;;;;;5049630;28;20251;-67
2023/05/30 00:34:42;;;;;;;4.60;1.42;;;15.70;64.20;;;;;;5031776;28;20185;-66
2023/05/30 00:37:08;;;;;;;3.92;1.40;;;15.60;64.10;;;;;;5044567;28;20178;-66
2023/05/30 00:39:37;;;;;;;4.13;1.35;;;15.60;64.10;;;;;;5033666;28;20201;-67
2023/05/30 00:42:05;;;;;;;2.92;1.13;;;15.50;64.00;;;;;;5044987;28;20174;-67
2023/05/30 00:44:31;;;;;;;4.43;1.52;;;15.50;64.20;;;;;;5032199;28;20171;-66
2023/05/30 00:46:59;;;;;;;3.90;1.40;;;15.50;64.20;;;;;;5032698;28;20201;-65
2023/05/30 00:49:26;;;;;;;3.65;1.50;;;15.40;64.30;;;;;;5020864;28;20172;-64
2023/05/30 00:51:55;;;;;;;2.78;1.10;;;15.40;64.40;;;;;;5050716;28;20238;-66
2023/05/30 00:54:22;;;;;;;3.47;1.30;;;15.30;64.20;;;;;;5035406;28;20185;-66
2023/05/30 00:56:48;;;;;;;2.50;1.13;;;15.30;64.20;;;;;;5037517;28;20269;-66
2023/05/30 00:59:14;;;;;;;3.67;1.40;;;15.20;64.20;;;;;;5034032;28;20218;-66
2023/05/30 01:01:43;;;;;;;2.00;1.30;;;15.20;64.40;;;;;;5047991;28;20191;-67
2023/05/30 01:04:11;;;;;;;2.30;1.30;;;15.10;64.40;;;;;;5021662;28;20497;-66
2023/05/30 01:06:39;;;;;;;2.65;1.02;;;15.10;64.40;;;;;;5022029;28;20206;-66
2023/05/30 01:09:06;;;;;;;4.18;1.33;;;15.00;64.40;;;;;;5026625;28;20182;-68
2023/05/30 01:12:14;;;;;;;2.05;1.10;;;14.90;64.40;;;;;;5029516;28;20261;-66
2023/05/30 01:15:11;;;;;;;3.97;1.30;;;14.90;65.10;;;;;;5027146;28;20253;-68
2023/05/30 01:18:05;;;;;;;2.55;1.30;;;14.80;64.70;;;;;;5020680;28;20242;-67
2023/05/30 01:20:37;;;;;;;2.70;1.00;;;14.80;64.50;;;;;;5034068;28;20293;-67
2023/05/30 01:23:41;;;;;;;3.63;1.40;;;14.70;64.30;;;;;;5032801;28;20186;-67
2023/05/30 01:26:12;;;;;;;5.03;1.15;;;14.60;64.50;;;;;;5033186;28;20297;-66
2023/05/30 01:28:40;;;;;;;2.55;1.02;;;14.60;64.30;;;;;;5049078;28;20216;-69
2023/05/30 01:31:08;;;;;;;3.10;1.42;;;14.50;64.10;;;;;;5043984;28;20170;-65
2023/05/30 01:33:35;;;;;;;3.88;1.20;;;14.50;64.30;;;;;;5045821;28;20285;-67
2023/05/30 01:36:01;;;;;;;3.25;1.17;;;14.40;64.10;;;;;;5036740;28;20192;-67
2023/05/30 01:38:27;;;;;;;3.30;1.08;;;14.40;64.10;;;;;;5034804;28;20177;-67
2023/05/30 01:40:56;;;;;;;1.75;1.02;;;14.40;64.10;;;;;;5036524;28;20170;-67
2023/05/30 01:43:40;;;;;;;3.30;1.40;;;14.30;63.90;;;;;;5030618;28;20272;-67
2023/05/30 01:46:30;;;;;;;2.53;1.20;;;14.30;64.10;;;;;;5038076;28;20201;-68
2023/05/30 01:49:20;;;;;;;3.13;1.20;;;14.30;63.90;;;;;;5035181;28;20182;-64
2023/05/30 01:52:00;;;;;;;3.60;1.30;;;14.20;63.70;;;;;;5033080;28;20187;-66
2023/05/30 01:54:30;;;;;;;2.03;1.02;;;14.20;63.60;;;;;;5033906;28;20178;-66
2023/05/30 01:57:09;;;;;;;2.53;1.10;;;14.20;63.50;;;;;;5032265;28;20281;-66
2023/05/30 01:59:37;;;;;;;1.95;0.95;;;14.10;63.30;;;;;;5031529;28;20198;-67
2023/05/30 02:02:03;;;;;;;2.22;1.13;;;14.10;63.30;;;;;;5047487;28;20190;-64
2023/05/30 02:04:30;;;;;;;1.88;1.00;;;14.10;63.30;;;;;;5034294;28;20232;-67
2023/05/30 02:06:56;;;;;;;2.80;1.20;;;14.00;63.10;;;;;;5033221;28;20208;-64
2023/05/30 02:09:27;;;;;;;2.85;1.10;;;14.00;63.10;;;;;;5028326;28;20175;-66
2023/05/30 02:11:53;;;;;;;3.90;1.10;;;14.00;63.00;;;;;;5022412;28;20178;-66
2023/05/30 02:14:22;;;;;;;2.45;1.10;;;13.90;62.90;;;;;;5052816;28;20221;-66
2023/05/30 02:16:51;;;;;;;3.67;1.35;;;13.90;63.00;;;;;;5030038;28;20174;-66
2023/05/30 02:19:17;;;;;;;3.10;1.63;;;13.80;63.60;;;;;;5032869;28;20494;-66
2023/05/30 02:21:42;;;;;;;2.88;1.00;;;13.80;62.90;;;;;;5035202;28;20182;-66
2023/05/30 02:24:12;;;;;;;2.47;0.95;;;13.70;62.80;;;;;;5032342;28;20178;-68
2023/05/30 02:26:40;;;;;;;2.35;1.00;;;13.70;62.90;;;;;;5034527;28;20206;-66
2023/05/30 02:29:08;;;;;;;2.67;1.10;;;13.60;62.90;;;;;;5038174;28;20174;-68
2023/05/30 02:31:39;;;;;;;2.30;1.08;;;13.60;63.00;;;;;;5024700;28;20175;-67
2023/05/30 02:34:04;;;;;;;2.63;1.23;;;13.60;63.00;;;;;;5034133;28;20198;-66
2023/05/30 02:36:32;;;;;;;2.47;1.10;;;13.50;63.00;;;;;;5027430;28;20171;-67
2023/05/30 02:39:07;;;;;;;2.75;1.13;;;13.50;63.00;;;;;;5017986;28;20306;-66
2023/05/30 02:41:33;;;;;;;2.90;1.10;;;13.50;63.10;;;;;;5032362;28;20184;-66
2023/05/30 02:44:00;;;;;;;3.15;0.90;;;13.40;63.10;;;;;;5024744;28;20257;-66
2023/05/30 02:46:26;;;;;;;1.60;0.90;;;13.40;63.10;;;;;;5035329;28;20205;-66
2023/05/30 02:48:54;;;;;;;2.92;1.40;;;13.40;63.20;;;;;;5052061;28;20181;-66
2023/05/30 02:51:19;;;;;;;2.17;1.10;;;13.40;63.40;;;;;;5040307;28;20204;-65
2023/05/30 02:53:47;;;;;;;2.42;0.90;;;13.30;63.30;;;;;;5034063;28;20198;-67
2023/05/30 02:56:15;;;;;;;1.73;1.23;;;13.30;64.20;;;;;;5028593;28;20202;-66
2023/05/30 02:58:43;;;;;;;2.17;1.00;;;13.20;63.30;;;;;;5044871;28;20198;-66
2023/05/30 03:01:11;;;;;;;3.60;1.35;;;13.20;63.40;;;;;;5035130;28;20236;-66
2023/05/30 03:03:41;;;;;;;2.47;1.10;;;13.20;63.50;;;;;;5032124;28;20186;-67
2023/05/30 03:06:07;;;;;;;2.80;1.10;;;13.10;63.50;;;;;;5042282;28;20190;-66
2023/05/30 03:08:33;;;;;;;2.88;1.17;;;13.10;63.70;;;;;;5032748;28;20197;-64
2023/05/30 03:11:03;;;;;;;1.67;1.00;;;13.10;63.90;;;;;;5032320;28;20195;-67
2023/05/30 03:13:33;;;;;;;3.63;1.05;;;13.00;64.10;;;;;;5034155;28;20189;-66
2023/05/30 03:15:59;;;;;;;3.90;1.17;;;13.00;64.30;;;;;;5034600;28;20173;-66
2023/05/30 03:18:25;;;;;;;2.88;1.15;;;13.00;64.30;;;;;;5032893;28;20189;-65
2023/05/30 03:20:51;;;;;;;2.17;1.08;;;13.00;64.40;;;;;;5031744;28;20181;-66
2023/05/30 03:23:16;;;;;;;3.80;1.05;;;12.90;64.40;;;;;;5048703;28;20178;-66
2023/05/30 03:25:42;;;;;;;2.22;1.17;;;12.90;64.60;;;;;;5030521;28;20179;-65
2023/05/30 03:28:10;;;;;;;4.72;1.00;;;12.80;64.80;;;;;;5031354;28;20697;-66
2023/05/30 03:30:42;;;;;;;1.98;0.93;;;12.80;65.00;;;;;;5034152;28;20201;-67
2023/05/30 03:33:08;;;;;;;2.60;1.20;;;12.80;65.00;;;;;;5033364;28;20305;-67
2023/05/30 03:35:34;;;;;;;3.97;1.17;;;12.70;66.00;;;;;;5043128;28;20257;-66
2023/05/30 03:38:03;;;;;;;3.00;1.10;;;12.70;65.20;;;;;;5024096;28;20229;-67
2023/05/30 03:40:33;;;;;;;3.20;0.95;;;12.70;65.40;;;;;;5025937;28;20178;-66
2023/05/30 03:42:59;;;;;;;1.80;1.30;;;12.70;65.60;;;;;;5020479;28;20222;-67
2023/05/30 03:45:25;;;;;;;5.07;1.70;;;12.60;65.60;;;;;;5033209;28;20273;-66
2023/05/30 03:47:50;;;;;;;5.50;2.00;;;12.60;66.00;;;;;;5023370;28;20266;-66
2023/05/30 03:50:16;;;;;;;3.33;1.60;;;12.60;66.00;;;;;;5022597;28;20228;-66
2023/05/30 03:52:42;;;;;;;2.35;1.45;;;12.60;66.10;;;;;;5025631;28;20198;-66
2023/05/30 03:55:08;;;;;;;3.20;1.10;;;12.60;66.10;;;;;;5047563;28;20204;-66
2023/05/30 03:57:33;;;;;;;3.65;1.40;;;12.60;66.30;;;;;;5021703;28;20233;-66
2023/05/30 03:59:59;;;;;;;4.68;2.38;;;12.60;66.60;;;;;;5033959;28;20251;-66
2023/05/30 04:02:26;;;;;;;3.25;1.45;;;12.60;66.70;;;;;;5024997;28;20228;-66
2023/05/30 04:04:53;;;;;;;3.50;1.17;;;12.60;66.70;;;;;;5049907;28;20182;-66
2023/05/30 04:07:20;;;;;;;4.70;1.48;;;12.60;67.00;;;;;;5026473;28;20179;-67
2023/05/30 04:09:46;;;;;;;1.90;1.30;;;12.60;67.20;;;;;;5015180;28;20204;-67
2023/05/30 04:12:14;;;;;;;3.42;1.30;;;12.60;67.30;;;;;;5022641;28;20257;-66
2023/05/30 04:14:40;;;;;;;2.88;1.42;;;12.60;67.40;;;;;;5034846;28;20184;-68
2023/05/30 04:17:06;;;;;;;3.13;1.63;;;12.50;67.70;;;;;;5024861;28;20277;-66
2023/05/30 04:19:31;;;;;;;4.25;1.80;;;12.60;68.20;;;;;;5022769;28;20174;-66
2023/05/30 04:21:57;;;;;;;4.53;2.25;;;12.60;67.90;;;;;;5038556;28;20174;-66
2023/05/30 04:24:22;;;;;;;3.60;1.33;;;12.60;68.00;;;;;;5038046;28;20174;-68
2023/05/30 04:26:53;;;;;;;3.30;1.30;;;12.60;68.40;;;;;;5038359;28;20202;-66
2023/05/30 04:29:22;;;;;;;4.65;1.38;;;12.60;68.80;;;;;;5033020;28;20266;-66
2023/05/30 04:31:48;;;;;;;5.78;1.42;;;12.60;68.90;;;;;;5049569;28;20169;-66
2023/05/30 04:34:17;;;;;;;2.70;1.10;;;12.60;69.10;;;;;;5047786;28;20496;-65
2023/05/30 04:36:44;;;;;;;4.07;1.40;;;12.60;69.00;;;;;;5048343;28;20221;-66
2023/05/30 04:39:13;;;;;;;2.80;1.05;;;12.70;69.40;;;;;;5025288;28;20177;-66
2023/05/30 04:41:41;;;;;;;3.50;1.48;;;12.70;69.20;;;;;;5037743;28;20209;-66
2023/05/30 04:44:07;;;;;;;4.40;1.70;;;12.70;69.20;;;;;;5037672;28;20185;-67
2023/05/30 04:46:35;;;;;;;3.35;1.52;;;12.70;69.40;;;;;;5028273;28;20437;-66
2023/05/30 04:49:06;;;;;;;3.45;1.35;;;12.70;70.80;;;;;;5053751;28;20206;-66
2023/05/30 04:51:33;;;;;;;3.95;1.50;;;12.70;70.80;;;;;;5036362;28;20398;-66
2023/05/30 04:54:01;;;;;;;3.65;1.30;;;12.70;70.40;;;;;;5036831;28;20194;-66
2023/05/30 04:56:28;;;;;;;2.88;1.15;;;12.70;70.70;;;;;;5037171;28;20240;-64
2023/05/30 04:58:54;;;;;;;3.35;1.50;;;12.80;70.40;;;;;;5042383;28;20182;-65
2023/05/30 05:01:23;;;;;;;4.03;1.40;;;12.80;70.50;;;;;;5078038;22;20222;-65
2023/05/30 05:03:49;;;;;;;3.63;1.45;;;12.80;72.10;;;;;;5013939;28;20230;-65
2023/05/30 05:06:15;;;;;;;4.47;1.50;;;12.80;71.20;;;;;;5015985;28;20274;-65
2023/05/30 05:08:43;;;;;;;4.60;1.20;;;12.80;72.30;;;;;;5015299;28;20221;-64
2023/05/30 05:11:09;;;;;;;3.60;1.20;;;12.80;71.70;;;;;;5027478;28;20182;-65
2023/05/30 05:13:37;;;;;;;2.78;1.20;;;12.80;71.80;;;;;;5012498;28;20210;-69
2023/05/30 05:16:07;;;;;;;5.20;1.63;;;12.80;72.50;;;;;;5029004;28;20190;-69
2023/05/30 05:18:34;;;;;;;3.22;1.13;;;12.90;73.00;;;;;;5021612;28;20365;-67
2023/05/30 05:21:01;;;;;;;2.80;1.10;;;12.90;72.50;;;;;;5013086;28;20189;-67
2023/05/30 05:23:28;;;;;;;4.97;1.30;;;13.00;72.70;;;;;;5015881;28;20175;-67
2023/05/30 05:25:53;;;;;;;4.28;1.42;;;12.80;73.00;;;;;;5019606;28;20207;-68
2023/05/30 05:28:21;;;;;;;3.25;1.63;;;13.00;73.20;;;;;;5028585;28;20217;-67
2023/05/30 05:30:48;;;;;;;5.15;1.30;;;13.00;73.50;;;;;;5013165;28;20183;-68
2023/05/30 05:33:15;;;;;;;2.90;1.30;;;13.00;73.50;;;;;;5017087;28;20205;-68
2023/05/30 05:35:46;;;;;;;4.90;1.48;;;13.00;73.20;;;;;;5007380;28;20176;-68
2023/05/30 05:38:15;;;;;;;7.07;1.60;;;13.10;74.10;;;;;;5007888;28;20189;-68
2023/05/30 05:40:41;;;;;;;5.07;1.70;;;13.10;74.40;;;;;;5016483;28;20183;-68
2023/05/30 05:43:07;;;;;;;4.28;1.42;;;13.10;75.00;;;;;;5006280;28;20210;-67
2023/05/30 05:45:32;;;;;;;4.85;1.50;;;13.20;75.10;;;;;;5013524;28;20175;-68
2023/05/30 05:48:00;;;;;;;2.85;1.35;;;13.20;75.20;;;;;;5027907;28;20183;-69
2023/05/30 05:50:26;;;;;;;4.47;1.50;;;13.10;75.10;;;;;;5008204;28;20254;-68
2023/05/30 05:52:52;;;;;;;3.28;1.30;;;13.20;75.70;;;;;;5013237;28;20199;-69
2023/05/30 05:55:18;;;;;;;4.10;1.30;;;13.20;75.60;;;;;;5012652;28;20171;-68
2023/05/30 05:57:43;;;;;;;3.78;1.58;;;13.30;75.40;;;;;;5014853;28;20182;-69
2023/05/30 06:00:09;;;;;;;5.60;1.55;;;13.30;75.70;;;;;;5016053;28;20182;-68
2023/05/30 06:02:38;;;;;;;3.45;1.60;;;13.30;76.20;;;;;;5021410;28;20199;-68
2023/05/30 06:05:04;;;;;;;5.20;1.90;;;13.30;76.30;;;;;;5023510;28;20206;-68
2023/05/30 06:07:30;;;;;;;2.83;1.80;;;13.30;76.60;;;;;;5014896;28;20175;-68
2023/05/30 06:09:55;;;;;;;3.78;1.25;;;13.40;76.70;;;;;;5028856;28;20197;-68
2023/05/30 06:12:21;;;;;;;4.05;1.42;;;13.30;76.40;;;;;;5015537;28;20186;-68
2023/05/30 06:14:51;;;;;;;4.72;1.65;;;13.30;76.10;;;;;;5010549;28;20175;-68
2023/05/30 06:17:17;;;;;;;3.72;1.70;;;13.30;76.90;;;;;;5012673;28;20195;-69
2023/05/30 06:19:45;;;;;;;3.20;1.27;;;13.30;76.50;;;;;;5013078;28;20270;-69
2023/05/30 06:22:13;;;;;;;5.43;1.55;;;13.40;76.80;;;;;;4996493;28;20352;-67
2023/05/30 06:24:39;;;;;;;7.03;1.70;;;13.40;77.20;;;;;;5010119;28;20209;-68
2023/05/30 06:27:07;;;;;;;5.53;1.70;;;13.40;77.00;;;;;;5014128;28;20449;-68
2023/05/30 06:29:37;;;;;;;3.30;1.25;;;13.40;77.30;;;;;;5015666;28;20175;-68
2023/05/30 06:32:03;;;;;;;5.18;1.70;;;13.50;77.40;;;;;;4996613;28;20179;-68
2023/05/30 06:34:28;;;;;;;4.30;1.48;;;13.50;78.20;;;;;;5027123;28;20209;-67
2023/05/30 06:36:55;;;;;;;3.90;1.67;;;13.50;78.40;;;;;;5015845;28;20254;-67
2023/05/30 06:39:23;;;;;;;4.07;1.58;;;13.60;78.50;;;;;;5011966;28;20183;-68
2023/05/30 06:41:49;;;;;;;4.68;1.45;;;13.60;78.30;;;;;;5012812;28;20198;-68
2023/05/30 06:44:14;;;;;;;3.47;1.25;;;13.70;78.50;;;;;;4998527;28;20172;-68
2023/05/30 06:46:40;;;;;;;7.38;1.83;;;13.80;78.80;;;;;;4996910;28;20187;-68
2023/05/30 06:49:05;;;;;;;5.22;1.50;;;13.80;78.70;;;;;;5015396;28;20206;-69
2023/05/30 06:51:31;;;;;;;6.30;1.77;;;13.90;78.80;;;;;;5018659;28;20174;-69
2023/05/30 06:53:57;;;;;;;3.28;1.50;;;14.00;78.70;;;;;;5007057;28;20241;-69
2023/05/30 06:56:23;;;;;;;5.03;1.55;;;14.00;78.70;;;;;;5015390;28;20185;-68
2023/05/30 06:58:49;;;;;;;4.45;1.48;;;14.00;78.50;;;;;;5014065;28;20171;-68
2023/05/30 07:01:15;;;;;;;6.45;1.70;;;14.00;78.50;;;;;;5031275;28;20245;-68
2023/05/30 07:03:45;;;;;;;5.28;1.65;;;14.00;78.70;;;;;;5014964;28;20182;-70
2023/05/30 07:06:11;;;;;;;6.60;2.22;;;14.10;78.90;;;;;;5010096;28;20175;-71
2023/05/30 07:08:37;;;;;;;3.63;1.60;;;14.20;79.20;;;;;;5005327;28;20189;-69
2023/05/30 07:11:10;;;;;;;4.95;1.90;;;14.20;79.40;;;;;;5015514;28;20182;-68
2023/05/30 07:13:36;;;;;;;2.90;1.52;;;14.30;80.40;;;;;;5013939;28;20199;-68
2023/05/30 07:16:02;;;;;;;7.25;1.77;;;14.30;79.50;;;;;;5015458;28;20181;-69
2023/05/30 07:18:32;;;;;;;4.70;1.70;;;14.40;79.30;;;;;;5014475;28;20189;-68
2023/05/30 07:21:01;;;;;;;4.13;1.50;;;14.40;79.30;;;;;;5013378;28;20241;-69
2023/05/30 07:23:29;;;;;;;4.85;1.73;;;14.50;79.50;;;;;;5015132;28;20177;-69
2023/05/30 07:25:57;;;;;;;5.05;1.80;;;14.50;80.00;;;;;;5015113;28;20197;-69
2023/05/30 07:28:24;;;;;;;4.18;1.80;;;14.50;79.90;;;;;;5015292;28;20207;-70
2023/05/30 07:30:50;;;;;;;6.93;2.13;;;14.60;79.80;;;;;;5004574;28;20179;-69
2023/05/30 07:33:18;;;;;;;6.80;1.75;;;14.60;79.90;;;;;;5002396;28;20249;-68
2023/05/30 07:35:46;;;;;;;6.18;2.10;;;14.60;80.20;;;;;;5031464;28;20206;-69
2023/05/30 07:38:11;;;;;;;8.23;1.95;;;14.70;80.20;;;;;;5014689;28;20175;-70
2023/05/30 07:40:37;;;;;;;4.10;1.80;;;14.70;80.30;;;;;;5025419;28;20178;-69
2023/05/30 07:43:03;;;;;;;5.78;2.03;;;14.70;80.60;;;;;;5014547;28;20206;-70
2023/05/30 07:45:28;;;;;;;6.63;2.10;;;14.80;81.50;;;;;;5011668;28;20190;-70
2023/05/30 07:47:54;;;;;;;6.28;1.88;;;14.90;81.30;;;;;;5024609;28;20193;-69
2023/05/30 07:50:22;;;;;;;4.78;2.30;;;14.90;81.30;;;;;;5015117;28;20187;-71
2023/05/30 07:52:48;;;;;;;5.13;2.00;;;15.10;81.40;;;;;;5015566;28;20233;-70
2023/05/30 07:55:15;;;;;;;6.68;2.35;;;15.10;81.30;;;;;;5002570;28;20348;-70
2023/05/30 07:57:43;;;;;;;5.15;1.90;;;15.10;81.40;;;;;;4999813;28;20179;-69
2023/05/30 08:00:10;;;;;;;4.45;2.10;;;15.20;82.10;;;;;;5014250;28;20175;-70
2023/05/30 08:02:35;;;;;;;8.60;2.30;;;15.30;82.10;;;;;;5002247;28;20202;-69
2023/05/30 08:05:03;;;;;;;7.90;2.60;;;15.30;81.70;;;;;;5002781;28;20205;-69
2023/05/30 08:07:31;;;;;;;4.72;2.13;;;15.40;81.60;;;;;;5035550;28;20266;-68
2023/05/30 08:09:57;;;;;;;5.45;2.10;;;15.40;81.60;;;;;;5019425;28;20171;-70
2023/05/30 08:12:28;;;;;;;6.93;2.10;;;15.50;82.10;;;;;;5021435;28;20190;-67
2023/05/30 08:14:55;;;;;;;5.40;1.80;;;15.50;82.50;;;;;;5017631;28;20174;-67
2023/05/30 08:17:23;;;;;;;5.40;1.73;;;15.60;82.40;;;;;;5018507;28;20182;-68
2023/05/30 08:19:50;;;;;;;4.97;2.20;;;15.70;82.10;;;;;;5018092;28;20213;-68
2023/05/30 08:22:16;;;;;;;5.82;2.00;;;15.90;82.30;;;;;;5034571;28;20195;-68
2023/05/30 08:24:44;;;;;;;3.95;1.80;;;15.90;82.30;;;;;;5035066;28;20174;-68
2023/05/30 08:27:10;;;;;;;4.63;2.00;;;16.00;82.50;;;;;;5017999;28;20240;-68
2023/05/30 08:29:38;;;;;;;4.15;1.92;;;16.00;82.30;;;;;;4999378;28;20207;-68
2023/05/30 08:32:04;;;;;;;6.60;2.10;;;16.10;82.30;;;;;;5012057;28;20199;-68
2023/05/30 08:34:30;;;;;;;5.10;2.05;;;16.10;82.00;;;;;;5018141;28;20194;-70
2023/05/30 08:37:01;;;;;;;3.00;2.10;;;16.20;82.00;;;;;;5030264;28;20195;-71
2023/05/30 08:39:27;;;;;;;6.15;2.42;;;16.30;82.10;;;;;;5018078;28;20202;-70
2023/05/30 08:41:57;;;;;;;6.55;2.58;;;16.30;82.10;;;;;;5016557;28;20186;-69
2023/05/30 08:44:25;;;;;;;4.55;1.88;;;16.30;81.90;;;;;;5016778;28;20206;-69
2023/05/30 08:46:51;;;;;;;4.55;1.90;;;16.40;81.80;;;;;;5007206;28;20241;-69
2023/05/30 08:49:21;;;;;;;8.90;2.30;;;16.40;82.00;;;;;;4998312;28;20179;-67
2023/05/30 08:51:48;;;;;;;5.28;2.30;;;16.50;82.70;;;;;;5016675;28;20183;-68
2023/05/30 08:54:25;;;;;;;5.10;2.22;;;16.50;81.90;;;;;;5022962;28;20198;-68
2023/05/30 08:57:10;;;;;;;6.20;2.10;;;16.60;82.30;;;;;;5023018;28;20170;-68
2023/05/30 08:59:36;;;;;;;4.07;2.05;;;16.70;83.30;;;;;;5029706;28;20190;-68
2023/05/30 09:02:03;;;;;;;5.90;2.00;;;16.70;82.00;;;;;;5005801;28;20281;-69
2023/05/30 09:04:30;;;;;;;6.28;2.35;;;16.80;81.90;;;;;;5010485;28;20210;-68
2023/05/30 09:06:58;;;;;;;5.47;2.42;;;16.80;81.90;;;;;;5017078;28;20174;-68
2023/05/30 09:09:27;;;;;;;6.55;2.20;;;16.90;82.00;;;;;;5017641;28;20183;-68
2023/05/30 09:11:53;;;;;;;5.15;2.08;;;16.90;82.00;;;;;;5016985;28;20265;-69
2023/05/30 09:14:21;;;;;;;6.78;2.28;;;17.00;82.30;;;;;;5017293;28;20285;-67
2023/05/30 09:16:47;;;;;;;4.22;2.20;;;17.10;82.50;;;;;;5018134;28;20249;-68
2023/05/30 09:19:13;;;;;;;7.03;2.35;;;17.20;82.40;;;;;;5017516;28;20180;-69
2023/05/30 09:21:39;;;;;;;7.65;2.50;;;17.30;82.60;;;;;;5001947;28;20176;-69
2023/05/30 09:24:05;;;;;;;4.05;2.17;;;17.40;83.30;;;;;;5004187;28;20182;-69
2023/05/30 09:26:34;;;;;;;5.05;2.25;;;17.50;82.50;;;;;;5017507;28;20229;-69
2023/05/30 09:29:10;;;;;;;4.60;2.22;;;17.60;82.40;;;;;;5011732;28;20182;-69
2023/05/30 09:31:36;;;;;;;7.05;2.38;;;17.60;82.20;;;;;;5017190;28;20232;-69
2023/05/30 09:34:07;;;;;;;5.30;2.15;;;17.70;82.30;;;;;;5012421;28;20195;-70
2023/05/30 09:36:35;;;;;;;5.85;2.40;;;17.80;82.50;;;;;;5001421;28;20198;-68
2023/05/30 09:39:05;;;;;;;5.43;2.63;;;17.90;82.60;;;;;;5017169;28;20195;-68
2023/05/30 09:41:32;;;;;;;5.82;2.63;;;18.00;82.80;;;;;;5014448;28;20228;-69
2023/05/30 09:43:59;;;;;;;11.63;3.05;;;18.10;82.70;;;;;;5016646;28;20273;-69
2023/05/30 09:46:35;;;;;;;5.75;2.50;;;18.20;82.60;;;;;;5016289;28;20210;-69
2023/05/30 09:49:13;;;;;;;5.57;2.10;;;18.30;82.10;;;;;;5016346;28;20202;-69
2023/05/30 09:51:39;;;;;;;5.63;2.20;;;18.40;82.20;;;;;;5016852;28;20163;-69
2023/05/30 09:54:06;;;;;;;5.13;2.30;;;18.40;82.40;;;;;;5016177;28;20276;-68
2023/05/30 09:56:42;;;;;;;6.07;2.58;;;18.50;82.30;;;;;;5016563;28;20536;-69
2023/05/30 09:59:15;;;;;;;4.78;2.50;;;18.60;82.20;;;;;;5016419;28;20343;-69
2023/05/30 10:01:45;;;;;;;5.50;2.38;;;18.60;82.40;;;;;;5014065;28;20210;-69
2023/05/30 10:04:20;;;;;;;4.32;2.03;;;18.70;83.00;;;;;;5000986;28;20174;-68
2023/05/30 10:06:53;;;;;;;5.80;2.30;;;18.80;82.50;;;;;;5030422;28;20178;-69
2023/05/30 10:09:20;;;;;;;5.18;2.28;;;18.90;82.30;;;;;;5015872;28;20213;-68
2023/05/30 10:11:47;;;;;;;5.60;2.45;;;19.00;82.50;;;;;;5014749;28;20181;-68
2023/05/30 10:14:16;;;;;;;5.40;2.25;;;19.10;82.60;;;;;;5007760;28;20194;-68
2023/05/30 10:17:08;;;;;;;6.65;2.47;;;19.30;82.90;;;;;;5015113;28;20213;-69
2023/05/30 10:19:43;;;;;;;7.15;2.40;;;19.40;82.50;;;;;;4996540;28;20206;-69
2023/05/30 10:22:12;;;;;;;7.70;2.85;;;19.50;82.90;;;;;;4999116;28;20220;-69
2023/05/30 10:24:42;;;;;;;7.60;2.63;;;19.60;82.70;;;;;;5032659;28;20202;-68
2023/05/30 10:27:15;;;;;;;8.07;2.33;;;19.80;82.80;;;;;;5028822;28;20175;-69
2023/05/30 10:30:02;;;;;;;6.43;2.78;;;19.90;82.90;;;;;;4996674;28;20206;-69
2023/05/30 10:32:32;;;;;;;5.00;2.53;;;20.10;82.20;;;;;;4995886;28;20207;-69
2023/05/30 10:35:21;;;;;;;4.07;2.20;;;20.30;83.00;;;;;;5005333;28;20178;-69
2023/05/30 10:37:47;;;;;;;4.20;2.25;;;20.60;82.90;;;;;;5016094;28;20159;-69
2023/05/30 10:40:29;;;;;;;4.97;2.13;;;20.80;83.90;;;;;;5015851;28;20233;-68
2023/05/30 10:43:16;;;;;;;5.22;2.15;;;21.10;83.10;;;;;;5032371;28;20197;-68
2023/05/30 10:46:10;;;;;;;5.32;2.28;;;21.40;82.80;;;;;;5028495;28;20174;-69
2023/05/30 10:48:49;;;;;;;6.93;2.50;;;21.60;81.60;;;;;;5031778;28;20198;-69
2023/05/30 10:51:17;;;;;;;10.35;5.25;;;21.80;83.20;;;;;;5012669;28;20184;-69
2023/05/30 10:53:47;;;;;;;9.45;3.22;;;22.00;83.20;;;;;;5015381;28;20198;-68
2023/05/30 10:56:40;;;;;;;6.60;2.90;;;22.20;82.30;;;;;;5031899;28;20261;-69
2023/05/30 10:59:18;;;;;;;6.32;2.42;;;22.30;80.40;;;;;;5015720;28;20171;-68
2023/05/30 11:02:03;;;;;;;5.30;2.40;;;22.50;81.50;;;;;;5013198;28;20226;-69
2023/05/30 11:04:34;;;;;;;3.85;1.92;;;22.60;81.70;;;;;;5013958;28;20221;-67
2023/05/30 11:07:04;;;;;;;4.90;2.25;;;22.80;82.70;;;;;;5011142;28;20197;-68
2023/05/30 11:09:30;;;;;;;6.60;2.55;;;23.00;82.00;;;;;;5030911;28;20186;-68
2023/05/30 11:12:00;;;;;;;6.45;2.35;;;23.10;82.30;;;;;;5014721;28;20185;-68
2023/05/30 11:14:35;;;;;;;8.40;2.47;;;23.20;81.10;;;;;;5015026;28;20195;-68
2023/05/30 11:17:08;;;;;;;5.10;2.10;;;23.30;80.30;;;;;;5004655;28;20218;-69
2023/05/30 11:19:38;;;;;;;3.90;2.08;;;23.50;80.30;;;;;;5004673;28;20183;-69
2023/05/30 11:22:16;;;;;;;7.82;2.42;;;23.60;80.70;;;;;;5008936;28;20170;-68
2023/05/30 11:24:43;;;;;;;5.07;2.38;;;23.70;77.70;;;;;;5026726;28;20210;-68
2023/05/30 11:27:12;;;;;;;4.38;2.10;;;23.80;79.30;;;;;;5024630;28;20183;-68
2023/05/30 11:29:48;;;;;;;5.32;2.20;;;23.80;79.10;;;;;;5010709;28;20253;-69
2023/05/30 11:32:30;;;;;;;5.05;2.30;;;23.90;77.20;;;;;;4999775;28;20261;-69
2023/05/30 11:35:09;;;;;;;6.43;2.20;;;24.00;77.50;;;;;;5020181;28;20183;-67
2023/05/30 11:37:37;;;;;;;5.82;2.00;;;24.10;78.00;;;;;;4995603;28;20175;-68
2023/05/30 11:40:12;;;;;;;6.15;2.60;;;24.20;78.60;;;;;;5012293;28;20198;-68
2023/05/30 11:42:37;;;;;;;6.78;2.35;;;24.30;78.50;;;;;;5015055;28;20179;-69
2023/05/30 11:45:03;;;;;;;5.07;2.17;;;24.40;78.60;;;;;;5013996;28;20241;-69
2023/05/30 11:47:32;;;;;;;6.35;2.35;;;24.60;78.60;;;;;;5013769;28;20233;-69
2023/05/30 11:49:58;;;;;;;6.65;2.28;;;24.70;78.00;;;;;;5015161;28;20175;-68
2023/05/30 11:52:23;;;;;;;7.50;2.88;;;24.80;75.80;;;;;;5010987;28;20194;-69
2023/05/30 11:54:49;;;;;;;5.88;2.40;;;24.80;73.60;;;;;;5014942;28;20210;-68
2023/05/30 11:57:17;;;;;;;6.00;2.35;;;24.80;73.70;;;;;;5013312;28;20182;-68
2023/05/30 11:59:48;;;;;;;5.68;2.47;;;24.80;73.70;;;;;;5030474;28;20217;-68
2023/05/30 12:02:15;;;;;;;3.47;1.92;;;24.80;73.00;;;;;;5013344;28;20190;-68
2023/05/30 12:04:42;;;;;;;9.77;3.00;;;24.70;72.80;;;;;;5009205;28;20183;-68
2023/05/30 12:07:08;;;;;;;6.95;2.40;;;24.70;71.80;;;;;;5014907;28;20194;-68
2023/05/30 12:09:41;;;;;;;6.50;2.47;;;24.70;71.40;;;;;;5013660;28;20179;-69
2023/05/30 12:12:10;;;;;;;4.05;2.22;;;24.70;70.70;;;;;;5021555;28;20170;-69
2023/05/30 12:14:40;;;;;;;3.63;1.77;;;24.80;71.40;;;;;;5005213;28;20211;-68
2023/05/30 12:17:12;;;;;;;4.93;2.30;;;24.90;71.00;;;;;;5009412;28;20187;-69
2023/05/30 12:19:40;;;;;;;4.35;2.00;;;24.90;70.90;;;;;;5005661;28;20175;-68
2023/05/30 12:22:11;;;;;;;5.40;2.30;;;25.10;71.40;;;;;;5013899;28;20296;-68
2023/05/30 12:24:37;;;;;;;3.75;2.05;;;25.20;70.40;;;;;;5014635;28;20253;-69
2023/05/30 12:27:14;;;;;;;6.07;2.55;;;25.30;70.50;;;;;;4995820;28;20207;-68
2023/05/30 12:29:42;;;;;;;3.50;2.10;;;25.50;69.30;;;;;;5026253;28;20257;-68
2023/05/30 12:32:11;;;;;;;4.85;2.33;;;25.50;69.10;;;;;;5014008;28;20194;-68
2023/05/30 12:34:45;;;;;;;5.53;2.30;;;25.50;67.60;;;;;;5014424;28;20285;-68
2023/05/30 12:37:16;;;;;;;5.28;2.47;;;25.50;66.60;;;;;;5021939;28;20179;-69
2023/05/30 12:39:51;;;;;;;3.53;2.28;;;25.40;65.10;;;;;;5003024;28;20175;-68
2023/05/30 12:42:22;;;;;;;5.85;2.03;;;25.40;64.50;;;;;;4998996;28;20191;-68
2023/05/30 12:44:51;;;;;;;4.28;1.88;;;25.30;64.20;;;;;;5013620;28;20391;-68
2023/05/30 12:47:17;;;;;;;7.78;2.50;;;25.30;65.30;;;;;;5028785;28;20179;-68
2023/05/30 12:49:46;;;;;;;6.80;2.28;;;25.30;65.30;;;;;;4998321;28;20186;-68
2023/05/30 12:52:12;;;;;;;6.55;2.40;;;25.40;64.90;;;;;;5014149;28;20171;-68
2023/05/30 12:54:45;;;;;;;4.90;2.25;;;25.50;64.70;;;;;;5017700;28;20206;-67
2023/05/30 12:57:16;;;;;;;5.68;2.15;;;25.50;62.80;;;;;;5012216;28;20257;-69